sensor_id;sensor_type;location;lat;lon;timestamp;P1;durP1;ratioP1;P2;durP2;ratioP2
56122;SDS011;42426;46.104;19.656;2023-01-24T00:00:29;11.57;;;7.82;;
56122;SDS011;42426;46.104;19.656;2023-01-24T00:02:54;12.10;;;8.35;;
56122;SDS011;42426;46.104;19.656;2023-01-24T00:05:20;14.95;;;7.75;;
56122;SDS011;42426;46.104;19.656;2023-01-24T00:07:46;13.25;;;7.97;;
56122;SDS011;42426;46.104;19.656;2023-01-24T00:10:12;15.73;;;8.05;;
56122;SDS011;42426;46.104;19.656;2023-01-24T00:12:38;12.95;;;8.95;;
56122;SDS011;42426;46.104;19.656;2023-01-24T00:15:04;17.35;;;10.13;;
56122;SDS011;42426;46.104;19.656;2023-01-24T00:17:30;23.70;;;12.30;;
56122;SDS011;42426;46.104;19.656;2023-01-24T00:19:56;22.13;;;12.93;;
56122;SDS011;42426;46.104;19.656;2023-01-24T00:22:21;23.30;;;13.68;;
56122;SDS011;42426;46.104;19.656;2023-01-24T00:24:47;21.33;;;14.50;;
56122;SDS011;42426;46.104;19.656;2023-01-24T00:27:14;21.77;;;14.32;;
56122;SDS011;42426;46.104;19.656;2023-01-24T00:29:40;18.83;;;13.70;;
56122;SDS011;42426;46.104;19.656;2023-01-24T00:32:07;20.60;;;11.68;;
56122;SDS011;42426;46.104;19.656;2023-01-24T00:34:33;19.98;;;13.20;;
56122;SDS011;42426;46.104;19.656;2023-01-24T00:36:59;20.55;;;12.77;;
56122;SDS011;42426;46.104;19.656;2023-01-24T00:39:24;18.25;;;11.18;;
56122;SDS011;42426;46.104;19.656;2023-01-24T00:41:50;14.27;;;9.25;;
56122;SDS011;42426;46.104;19.656;2023-01-24T00:44:16;15.27;;;9.77;;
56122;SDS011;42426;46.104;19.656;2023-01-24T00:46:42;10.55;;;7.63;;
56122;SDS011;42426;46.104;19.656;2023-01-24T00:49:07;11.23;;;7.75;;
56122;SDS011;42426;46.104;19.656;2023-01-24T00:51:34;10.73;;;7.80;;
56122;SDS011;42426;46.104;19.656;2023-01-24T00:54:00;9.38;;;6.18;;
56122;SDS011;42426;46.104;19.656;2023-01-24T00:56:26;8.45;;;6.00;;
56122;SDS011;42426;46.104;19.656;2023-01-24T00:58:52;8.05;;;5.90;;
56122;SDS011;42426;46.104;19.656;2023-01-24T01:01:17;8.25;;;6.20;;
56122;SDS011;42426;46.104;19.656;2023-01-24T01:03:43;10.70;;;6.50;;
56122;SDS011;42426;46.104;19.656;2023-01-24T01:06:10;7.35;;;5.55;;
56122;SDS011;42426;46.104;19.656;2023-01-24T01:08:38;7.18;;;5.53;;
56122;SDS011;42426;46.104;19.656;2023-01-24T01:11:04;9.40;;;6.03;;
56122;SDS011;42426;46.104;19.656;2023-01-24T01:13:30;10.27;;;5.35;;
56122;SDS011;42426;46.104;19.656;2023-01-24T01:16:04;7.85;;;5.90;;
56122;SDS011;42426;46.104;19.656;2023-01-24T01:18:31;7.25;;;5.50;;
56122;SDS011;42426;46.104;19.656;2023-01-24T01:20:58;8.00;;;5.43;;
56122;SDS011;42426;46.104;19.656;2023-01-24T01:23:23;7.78;;;5.75;;
56122;SDS011;42426;46.104;19.656;2023-01-24T01:25:50;7.00;;;5.78;;
56122;SDS011;42426;46.104;19.656;2023-01-24T01:28:15;7.15;;;5.40;;
56122;SDS011;42426;46.104;19.656;2023-01-24T01:30:41;7.00;;;4.95;;
56122;SDS011;42426;46.104;19.656;2023-01-24T01:33:08;9.55;;;5.50;;
56122;SDS011;42426;46.104;19.656;2023-01-24T01:35:33;9.18;;;5.72;;
56122;SDS011;42426;46.104;19.656;2023-01-24T01:38:00;7.82;;;4.95;;
56122;SDS011;42426;46.104;19.656;2023-01-24T01:40:26;6.80;;;4.90;;
56122;SDS011;42426;46.104;19.656;2023-01-24T01:42:53;9.45;;;5.78;;
56122;SDS011;42426;46.104;19.656;2023-01-24T01:48:00;8.32;;;5.20;;
56122;SDS011;42426;46.104;19.656;2023-01-24T01:50:30;7.97;;;5.47;;
56122;SDS011;42426;46.104;19.656;2023-01-24T01:53:02;7.82;;;5.18;;
56122;SDS011;42426;46.104;19.656;2023-01-24T01:55:28;7.82;;;5.72;;
56122;SDS011;42426;46.104;19.656;2023-01-24T01:57:58;5.97;;;4.60;;
56122;SDS011;42426;46.104;19.656;2023-01-24T02:00:24;8.43;;;4.70;;
56122;SDS011;42426;46.104;19.656;2023-01-24T02:02:53;6.35;;;4.07;;
56122;SDS011;42426;46.104;19.656;2023-01-24T02:05:44;6.05;;;4.53;;
56122;SDS011;42426;46.104;19.656;2023-01-24T02:08:10;7.88;;;4.25;;
56122;SDS011;42426;46.104;19.656;2023-01-24T02:10:40;5.93;;;4.20;;
56122;SDS011;42426;46.104;19.656;2023-01-24T02:13:26;6.45;;;4.18;;
56122;SDS011;42426;46.104;19.656;2023-01-24T02:15:52;5.75;;;4.18;;
56122;SDS011;42426;46.104;19.656;2023-01-24T02:18:27;5.22;;;3.78;;
56122;SDS011;42426;46.104;19.656;2023-01-24T02:20:57;6.35;;;3.67;;
56122;SDS011;42426;46.104;19.656;2023-01-24T02:26:20;6.88;;;4.97;;
56122;SDS011;42426;46.104;19.656;2023-01-24T02:28:54;7.13;;;4.70;;
56122;SDS011;42426;46.104;19.656;2023-01-24T02:31:51;7.70;;;4.85;;
56122;SDS011;42426;46.104;19.656;2023-01-24T02:34:26;5.90;;;4.22;;
56122;SDS011;42426;46.104;19.656;2023-01-24T02:36:54;7.93;;;4.45;;
56122;SDS011;42426;46.104;19.656;2023-01-24T02:39:37;6.57;;;3.78;;
56122;SDS011;42426;46.104;19.656;2023-01-24T02:42:20;6.43;;;4.00;;
56122;SDS011;42426;46.104;19.656;2023-01-24T02:47:22;5.88;;;3.65;;
56122;SDS011;42426;46.104;19.656;2023-01-24T02:49:51;6.15;;;3.95;;
56122;SDS011;42426;46.104;19.656;2023-01-24T02:52:16;5.50;;;3.67;;
56122;SDS011;42426;46.104;19.656;2023-01-24T02:55:00;5.75;;;3.97;;
56122;SDS011;42426;46.104;19.656;2023-01-24T02:57:26;7.75;;;3.92;;
56122;SDS011;42426;46.104;19.656;2023-01-24T03:00:10;7.30;;;4.18;;
56122;SDS011;42426;46.104;19.656;2023-01-24T03:02:36;5.38;;;3.60;;
56122;SDS011;42426;46.104;19.656;2023-01-24T03:05:02;5.38;;;3.75;;
56122;SDS011;42426;46.104;19.656;2023-01-24T03:07:28;4.90;;;3.75;;
56122;SDS011;42426;46.104;19.656;2023-01-24T03:10:06;5.43;;;4.20;;
56122;SDS011;42426;46.104;19.656;2023-01-24T03:12:34;5.75;;;3.95;;
56122;SDS011;42426;46.104;19.656;2023-01-24T03:15:19;5.35;;;4.03;;
56122;SDS011;42426;46.104;19.656;2023-01-24T03:18:03;5.65;;;4.00;;
56122;SDS011;42426;46.104;19.656;2023-01-24T03:20:47;6.10;;;4.47;;
56122;SDS011;42426;46.104;19.656;2023-01-24T03:23:32;5.97;;;3.60;;
56122;SDS011;42426;46.104;19.656;2023-01-24T03:26:17;5.80;;;3.72;;
56122;SDS011;42426;46.104;19.656;2023-01-24T03:29:01;7.38;;;4.43;;
56122;SDS011;42426;46.104;19.656;2023-01-24T03:31:45;7.78;;;4.18;;
56122;SDS011;42426;46.104;19.656;2023-01-24T03:34:29;5.90;;;4.18;;
56122;SDS011;42426;46.104;19.656;2023-01-24T03:36:59;6.85;;;4.32;;
56122;SDS011;42426;46.104;19.656;2023-01-24T03:39:25;6.70;;;4.43;;
56122;SDS011;42426;46.104;19.656;2023-01-24T03:42:09;8.60;;;5.03;;
56122;SDS011;42426;46.104;19.656;2023-01-24T03:44:35;5.38;;;4.57;;
56122;SDS011;42426;46.104;19.656;2023-01-24T03:47:01;6.03;;;4.00;;
56122;SDS011;42426;46.104;19.656;2023-01-24T03:49:27;7.50;;;4.15;;
56122;SDS011;42426;46.104;19.656;2023-01-24T03:52:12;8.38;;;5.47;;
56122;SDS011;42426;46.104;19.656;2023-01-24T03:54:56;7.25;;;4.68;;
56122;SDS011;42426;46.104;19.656;2023-01-24T03:57:23;7.45;;;4.53;;
56122;SDS011;42426;46.104;19.656;2023-01-24T03:59:50;5.35;;;4.10;;
56122;SDS011;42426;46.104;19.656;2023-01-24T04:02:16;7.60;;;4.60;;
56122;SDS011;42426;46.104;19.656;2023-01-24T04:04:42;5.18;;;3.97;;
56122;SDS011;42426;46.104;19.656;2023-01-24T04:07:26;7.45;;;4.13;;
56122;SDS011;42426;46.104;19.656;2023-01-24T04:09:53;7.93;;;4.55;;
56122;SDS011;42426;46.104;19.656;2023-01-24T04:12:18;6.35;;;4.28;;
56122;SDS011;42426;46.104;19.656;2023-01-24T04:14:44;6.85;;;4.43;;
56122;SDS011;42426;46.104;19.656;2023-01-24T04:17:10;7.22;;;4.60;;
56122;SDS011;42426;46.104;19.656;2023-01-24T04:19:35;6.85;;;4.80;;
56122;SDS011;42426;46.104;19.656;2023-01-24T04:22:01;8.27;;;5.00;;
56122;SDS011;42426;46.104;19.656;2023-01-24T04:24:27;8.55;;;5.40;;
56122;SDS011;42426;46.104;19.656;2023-01-24T04:26:52;7.35;;;4.82;;
56122;SDS011;42426;46.104;19.656;2023-01-24T04:29:18;7.70;;;5.07;;
56122;SDS011;42426;46.104;19.656;2023-01-24T04:34:10;12.85;;;6.82;;
56122;SDS011;42426;46.104;19.656;2023-01-24T04:36:36;13.80;;;8.15;;
56122;SDS011;42426;46.104;19.656;2023-01-24T04:39:02;19.50;;;10.65;;
56122;SDS011;42426;46.104;19.656;2023-01-24T04:41:27;24.45;;;12.38;;
56122;SDS011;42426;46.104;19.656;2023-01-24T04:43:53;26.50;;;12.45;;
56122;SDS011;42426;46.104;19.656;2023-01-24T04:46:19;34.47;;;14.95;;
56122;SDS011;42426;46.104;19.656;2023-01-24T04:48:46;24.65;;;13.85;;
56122;SDS011;42426;46.104;19.656;2023-01-24T04:51:11;19.02;;;10.63;;
56122;SDS011;42426;46.104;19.656;2023-01-24T04:53:40;15.38;;;9.05;;
56122;SDS011;42426;46.104;19.656;2023-01-24T04:56:06;13.88;;;7.80;;
56122;SDS011;42426;46.104;19.656;2023-01-24T04:58:33;9.65;;;6.90;;
56122;SDS011;42426;46.104;19.656;2023-01-24T05:00:59;10.38;;;6.05;;
56122;SDS011;42426;46.104;19.656;2023-01-24T05:03:26;10.60;;;5.80;;
56122;SDS011;42426;46.104;19.656;2023-01-24T05:05:52;15.77;;;9.82;;
56122;SDS011;42426;46.104;19.656;2023-01-24T05:08:19;6.88;;;4.93;;
56122;SDS011;42426;46.104;19.656;2023-01-24T05:10:45;14.05;;;7.80;;
56122;SDS011;42426;46.104;19.656;2023-01-24T05:13:12;8.25;;;6.30;;
56122;SDS011;42426;46.104;19.656;2023-01-24T05:15:37;9.93;;;5.28;;
56122;SDS011;42426;46.104;19.656;2023-01-24T05:18:03;16.30;;;10.93;;
56122;SDS011;42426;46.104;19.656;2023-01-24T05:20:29;15.32;;;8.10;;
56122;SDS011;42426;46.104;19.656;2023-01-24T05:22:58;12.50;;;8.40;;
56122;SDS011;42426;46.104;19.656;2023-01-24T05:25:24;11.27;;;6.50;;
56122;SDS011;42426;46.104;19.656;2023-01-24T05:27:50;7.00;;;5.30;;
56122;SDS011;42426;46.104;19.656;2023-01-24T05:30:15;7.32;;;5.13;;
56122;SDS011;42426;46.104;19.656;2023-01-24T05:32:41;9.10;;;6.10;;
56122;SDS011;42426;46.104;19.656;2023-01-24T05:35:07;8.48;;;5.25;;
56122;SDS011;42426;46.104;19.656;2023-01-24T05:37:37;9.93;;;6.18;;
56122;SDS011;42426;46.104;19.656;2023-01-24T05:40:04;9.82;;;5.93;;
56122;SDS011;42426;46.104;19.656;2023-01-24T05:42:31;8.10;;;5.18;;
56122;SDS011;42426;46.104;19.656;2023-01-24T05:44:57;9.60;;;5.22;;
56122;SDS011;42426;46.104;19.656;2023-01-24T05:47:22;7.72;;;5.57;;
56122;SDS011;42426;46.104;19.656;2023-01-24T05:49:48;13.93;;;7.85;;
56122;SDS011;42426;46.104;19.656;2023-01-24T05:52:15;12.68;;;7.90;;
56122;SDS011;42426;46.104;19.656;2023-01-24T05:54:52;12.80;;;7.60;;
56122;SDS011;42426;46.104;19.656;2023-01-24T05:57:18;13.90;;;7.35;;
56122;SDS011;42426;46.104;19.656;2023-01-24T05:59:45;10.43;;;6.88;;
56122;SDS011;42426;46.104;19.656;2023-01-24T06:02:11;10.27;;;5.32;;
56122;SDS011;42426;46.104;19.656;2023-01-24T06:04:36;9.40;;;5.60;;
56122;SDS011;42426;46.104;19.656;2023-01-24T06:07:02;8.23;;;5.30;;
56122;SDS011;42426;46.104;19.656;2023-01-24T06:09:28;9.13;;;5.47;;
56122;SDS011;42426;46.104;19.656;2023-01-24T06:11:53;9.57;;;5.63;;
56122;SDS011;42426;46.104;19.656;2023-01-24T06:14:19;10.60;;;6.72;;
56122;SDS011;42426;46.104;19.656;2023-01-24T06:16:45;12.40;;;6.63;;
56122;SDS011;42426;46.104;19.656;2023-01-24T06:19:13;13.00;;;7.50;;
56122;SDS011;42426;46.104;19.656;2023-01-24T06:21:44;16.80;;;8.63;;
56122;SDS011;42426;46.104;19.656;2023-01-24T06:24:21;21.02;;;9.70;;
56122;SDS011;42426;46.104;19.656;2023-01-24T06:29:17;20.70;;;11.43;;
56122;SDS011;42426;46.104;19.656;2023-01-24T06:39:52;19.23;;;11.43;;
56122;SDS011;42426;46.104;19.656;2023-01-24T06:42:19;30.88;;;16.02;;
56122;SDS011;42426;46.104;19.656;2023-01-24T06:44:46;28.92;;;17.42;;
56122;SDS011;42426;46.104;19.656;2023-01-24T06:47:12;30.05;;;15.82;;
56122;SDS011;42426;46.104;19.656;2023-01-24T06:49:38;19.40;;;12.27;;
56122;SDS011;42426;46.104;19.656;2023-01-24T06:52:04;14.23;;;7.70;;
56122;SDS011;42426;46.104;19.656;2023-01-24T06:54:30;13.70;;;7.78;;
56122;SDS011;42426;46.104;19.656;2023-01-24T06:56:58;12.07;;;7.65;;
56122;SDS011;42426;46.104;19.656;2023-01-24T06:59:24;10.82;;;6.88;;
56122;SDS011;42426;46.104;19.656;2023-01-24T07:01:49;15.23;;;8.38;;
56122;SDS011;42426;46.104;19.656;2023-01-24T07:04:15;15.73;;;10.45;;
56122;SDS011;42426;46.104;19.656;2023-01-24T07:06:41;17.27;;;11.65;;
56122;SDS011;42426;46.104;19.656;2023-01-24T07:09:07;21.88;;;13.07;;
56122;SDS011;42426;46.104;19.656;2023-01-24T07:11:33;24.38;;;14.15;;
56122;SDS011;42426;46.104;19.656;2023-01-24T07:13:59;12.98;;;8.57;;
56122;SDS011;42426;46.104;19.656;2023-01-24T07:16:25;15.63;;;9.38;;
56122;SDS011;42426;46.104;19.656;2023-01-24T07:18:51;24.85;;;12.82;;
56122;SDS011;42426;46.104;19.656;2023-01-24T07:21:17;17.27;;;11.23;;
56122;SDS011;42426;46.104;19.656;2023-01-24T07:23:43;15.50;;;8.80;;
56122;SDS011;42426;46.104;19.656;2023-01-24T07:26:10;10.50;;;6.05;;
56122;SDS011;42426;46.104;19.656;2023-01-24T07:28:40;17.55;;;10.98;;
56122;SDS011;42426;46.104;19.656;2023-01-24T07:31:09;10.32;;;6.57;;
56122;SDS011;42426;46.104;19.656;2023-01-24T07:33:37;12.88;;;8.65;;
56122;SDS011;42426;46.104;19.656;2023-01-24T07:36:13;27.75;;;17.38;;
56122;SDS011;42426;46.104;19.656;2023-01-24T07:38:39;19.30;;;12.18;;
56122;SDS011;42426;46.104;19.656;2023-01-24T07:41:06;15.50;;;9.85;;
56122;SDS011;42426;46.104;19.656;2023-01-24T07:43:33;13.90;;;9.18;;
56122;SDS011;42426;46.104;19.656;2023-01-24T07:45:58;14.82;;;8.15;;
56122;SDS011;42426;46.104;19.656;2023-01-24T07:48:24;12.07;;;7.63;;
56122;SDS011;42426;46.104;19.656;2023-01-24T07:50:50;12.07;;;7.68;;
56122;SDS011;42426;46.104;19.656;2023-01-24T07:53:15;11.32;;;8.68;;
56122;SDS011;42426;46.104;19.656;2023-01-24T07:55:41;9.80;;;6.50;;
56122;SDS011;42426;46.104;19.656;2023-01-24T07:58:07;9.05;;;5.57;;
56122;SDS011;42426;46.104;19.656;2023-01-24T08:00:32;8.60;;;5.80;;
56122;SDS011;42426;46.104;19.656;2023-01-24T08:03:02;9.48;;;5.80;;
56122;SDS011;42426;46.104;19.656;2023-01-24T08:05:28;8.48;;;5.30;;
56122;SDS011;42426;46.104;19.656;2023-01-24T08:07:54;8.77;;;5.45;;
56122;SDS011;42426;46.104;19.656;2023-01-24T08:10:20;8.68;;;5.68;;
56122;SDS011;42426;46.104;19.656;2023-01-24T08:12:47;8.18;;;5.57;;
56122;SDS011;42426;46.104;19.656;2023-01-24T08:15:14;7.22;;;5.47;;
56122;SDS011;42426;46.104;19.656;2023-01-24T08:17:40;8.65;;;5.85;;
56122;SDS011;42426;46.104;19.656;2023-01-24T08:20:06;8.07;;;5.80;;
56122;SDS011;42426;46.104;19.656;2023-01-24T08:22:33;11.55;;;6.38;;
56122;SDS011;42426;46.104;19.656;2023-01-24T08:24:59;10.38;;;6.18;;
56122;SDS011;42426;46.104;19.656;2023-01-24T08:27:25;8.07;;;6.10;;
56122;SDS011;42426;46.104;19.656;2023-01-24T08:29:50;10.23;;;6.00;;
56122;SDS011;42426;46.104;19.656;2023-01-24T08:32:16;8.93;;;6.55;;
56122;SDS011;42426;46.104;19.656;2023-01-24T08:34:42;10.70;;;7.65;;
56122;SDS011;42426;46.104;19.656;2023-01-24T08:37:07;11.98;;;6.03;;
56122;SDS011;42426;46.104;19.656;2023-01-24T08:39:33;11.70;;;7.32;;
56122;SDS011;42426;46.104;19.656;2023-01-24T08:41:59;12.13;;;6.32;;
56122;SDS011;42426;46.104;19.656;2023-01-24T08:44:24;10.50;;;6.03;;
56122;SDS011;42426;46.104;19.656;2023-01-24T08:46:50;8.68;;;6.45;;
56122;SDS011;42426;46.104;19.656;2023-01-24T08:49:16;13.35;;;8.18;;
56122;SDS011;42426;46.104;19.656;2023-01-24T08:51:41;14.25;;;8.35;;
56122;SDS011;42426;46.104;19.656;2023-01-24T08:54:07;11.75;;;7.72;;
56122;SDS011;42426;46.104;19.656;2023-01-24T08:56:33;10.80;;;7.75;;
56122;SDS011;42426;46.104;19.656;2023-01-24T08:58:59;11.50;;;7.82;;
56122;SDS011;42426;46.104;19.656;2023-01-24T09:01:25;10.82;;;7.40;;
56122;SDS011;42426;46.104;19.656;2023-01-24T09:03:52;12.38;;;6.95;;
56122;SDS011;42426;46.104;19.656;2023-01-24T09:06:20;23.00;;;15.98;;
56122;SDS011;42426;46.104;19.656;2023-01-24T09:08:46;13.68;;;11.25;;
56122;SDS011;42426;46.104;19.656;2023-01-24T09:11:11;16.27;;;8.88;;
56122;SDS011;42426;46.104;19.656;2023-01-24T09:13:38;12.02;;;7.05;;
56122;SDS011;42426;46.104;19.656;2023-01-24T09:16:05;31.05;;;18.00;;
56122;SDS011;42426;46.104;19.656;2023-01-24T09:18:31;16.50;;;10.20;;
56122;SDS011;42426;46.104;19.656;2023-01-24T09:21:00;11.82;;;7.25;;
56122;SDS011;42426;46.104;19.656;2023-01-24T09:23:27;10.20;;;7.20;;
56122;SDS011;42426;46.104;19.656;2023-01-24T09:25:53;10.00;;;5.60;;
56122;SDS011;42426;46.104;19.656;2023-01-24T09:28:21;10.20;;;6.68;;
56122;SDS011;42426;46.104;19.656;2023-01-24T09:30:50;12.35;;;7.90;;
56122;SDS011;42426;46.104;19.656;2023-01-24T09:33:16;12.90;;;8.32;;
56122;SDS011;42426;46.104;19.656;2023-01-24T09:35:59;13.45;;;7.57;;
56122;SDS011;42426;46.104;19.656;2023-01-24T09:38:26;14.07;;;8.15;;
56122;SDS011;42426;46.104;19.656;2023-01-24T09:41:00;15.10;;;8.88;;
56122;SDS011;42426;46.104;19.656;2023-01-24T09:43:32;15.75;;;9.73;;
56122;SDS011;42426;46.104;19.656;2023-01-24T09:51:56;16.95;;;9.40;;
56122;SDS011;42426;46.104;19.656;2023-01-24T09:56:53;12.88;;;6.95;;
56122;SDS011;42426;46.104;19.656;2023-01-24T09:59:28;11.50;;;7.93;;
56122;SDS011;42426;46.104;19.656;2023-01-24T10:01:58;8.52;;;6.47;;
56122;SDS011;42426;46.104;19.656;2023-01-24T10:04:30;10.23;;;6.25;;
56122;SDS011;42426;46.104;19.656;2023-01-24T10:12:11;9.65;;;6.88;;
56122;SDS011;42426;46.104;19.656;2023-01-24T10:14:56;11.02;;;7.80;;
56122;SDS011;42426;46.104;19.656;2023-01-24T10:17:38;12.57;;;8.80;;
56122;SDS011;42426;46.104;19.656;2023-01-24T10:23:20;14.60;;;9.00;;
56122;SDS011;42426;46.104;19.656;2023-01-24T10:25:56;22.55;;;13.80;;
56122;SDS011;42426;46.104;19.656;2023-01-24T10:29:29;42.50;;;26.17;;
56122;SDS011;42426;46.104;19.656;2023-01-24T10:34:44;16.50;;;10.38;;
56122;SDS011;42426;46.104;19.656;2023-01-24T10:37:22;87.68;;;57.78;;
56122;SDS011;42426;46.104;19.656;2023-01-24T10:39:54;46.22;;;28.45;;
56122;SDS011;42426;46.104;19.656;2023-01-24T10:44:57;23.60;;;15.07;;
56122;SDS011;42426;46.104;19.656;2023-01-24T10:47:43;24.90;;;13.43;;
56122;SDS011;42426;46.104;19.656;2023-01-24T10:50:14;14.57;;;10.43;;
56122;SDS011;42426;46.104;19.656;2023-01-24T10:52:41;14.65;;;9.05;;
56122;SDS011;42426;46.104;19.656;2023-01-24T11:00:55;14.75;;;9.55;;
56122;SDS011;42426;46.104;19.656;2023-01-24T11:03:29;12.48;;;8.02;;
56122;SDS011;42426;46.104;19.656;2023-01-24T11:06:00;14.48;;;7.80;;
56122;SDS011;42426;46.104;19.656;2023-01-24T11:08:34;18.83;;;8.98;;
56122;SDS011;42426;46.104;19.656;2023-01-24T11:13:37;13.48;;;8.25;;
56122;SDS011;42426;46.104;19.656;2023-01-24T11:16:05;13.85;;;7.72;;
56122;SDS011;42426;46.104;19.656;2023-01-24T11:18:49;10.00;;;7.05;;
56122;SDS011;42426;46.104;19.656;2023-01-24T11:21:27;15.25;;;8.60;;
56122;SDS011;42426;46.104;19.656;2023-01-24T11:26:36;12.30;;;7.78;;
56122;SDS011;42426;46.104;19.656;2023-01-24T11:29:14;10.75;;;7.20;;
56122;SDS011;42426;46.104;19.656;2023-01-24T11:31:47;12.05;;;7.05;;
56122;SDS011;42426;46.104;19.656;2023-01-24T11:37:45;11.93;;;6.55;;
56122;SDS011;42426;46.104;19.656;2023-01-24T11:40:41;12.48;;;7.28;;
56122;SDS011;42426;46.104;19.656;2023-01-24T11:43:40;11.63;;;7.72;;
56122;SDS011;42426;46.104;19.656;2023-01-24T11:46:19;13.52;;;8.52;;
56122;SDS011;42426;46.104;19.656;2023-01-24T11:49:12;24.20;;;14.05;;
56122;SDS011;42426;46.104;19.656;2023-01-24T12:19:22;13.48;;;7.05;;
56122;SDS011;42426;46.104;19.656;2023-01-24T12:21:58;8.93;;;5.93;;
56122;SDS011;42426;46.104;19.656;2023-01-24T12:27:01;13.33;;;6.60;;
56122;SDS011;42426;46.104;19.656;2023-01-24T12:29:32;13.02;;;7.13;;
56122;SDS011;42426;46.104;19.656;2023-01-24T12:32:07;20.42;;;9.45;;
56122;SDS011;42426;46.104;19.656;2023-01-24T12:39:58;17.30;;;10.10;;
56122;SDS011;42426;46.104;19.656;2023-01-24T12:42:40;15.05;;;9.25;;
56122;SDS011;42426;46.104;19.656;2023-01-24T12:46:04;18.70;;;9.88;;
56122;SDS011;42426;46.104;19.656;2023-01-24T12:48:58;20.23;;;11.75;;
56122;SDS011;42426;46.104;19.656;2023-01-24T12:51:50;17.50;;;9.30;;
56122;SDS011;42426;46.104;19.656;2023-01-24T12:54:30;15.23;;;8.77;;
56122;SDS011;42426;46.104;19.656;2023-01-24T13:00:12;17.67;;;8.63;;
56122;SDS011;42426;46.104;19.656;2023-01-24T13:02:55;18.63;;;9.95;;
56122;SDS011;42426;46.104;19.656;2023-01-24T13:08:50;13.38;;;9.73;;
56122;SDS011;42426;46.104;19.656;2023-01-24T13:11:21;16.70;;;9.63;;
56122;SDS011;42426;46.104;19.656;2023-01-24T13:16:36;13.48;;;8.43;;
56122;SDS011;42426;46.104;19.656;2023-01-24T13:21:51;17.05;;;9.85;;
56122;SDS011;42426;46.104;19.656;2023-01-24T13:24:31;12.23;;;8.75;;
56122;SDS011;42426;46.104;19.656;2023-01-24T13:27:30;24.42;;;16.33;;
56122;SDS011;42426;46.104;19.656;2023-01-24T13:32:39;19.85;;;13.45;;
56122;SDS011;42426;46.104;19.656;2023-01-24T13:35:17;25.00;;;16.05;;
56122;SDS011;42426;46.104;19.656;2023-01-24T13:41:01;62.90;;;34.65;;
56122;SDS011;42426;46.104;19.656;2023-01-24T13:51:44;67.75;;;44.30;;
56122;SDS011;42426;46.104;19.656;2023-01-24T13:54:19;45.35;;;29.05;;
56122;SDS011;42426;46.104;19.656;2023-01-24T13:57:13;73.97;;;41.97;;
56122;SDS011;42426;46.104;19.656;2023-01-24T14:04:54;81.38;;;45.80;;
56122;SDS011;42426;46.104;19.656;2023-01-24T14:07:30;43.90;;;24.42;;
56122;SDS011;42426;46.104;19.656;2023-01-24T14:10:03;92.55;;;53.28;;
56122;SDS011;42426;46.104;19.656;2023-01-24T14:12:31;61.85;;;35.90;;
56122;SDS011;42426;46.104;19.656;2023-01-24T14:20:25;37.95;;;23.00;;
56122;SDS011;42426;46.104;19.656;2023-01-24T14:22:58;28.10;;;18.42;;
56122;SDS011;42426;46.104;19.656;2023-01-24T14:25:37;27.15;;;17.20;;
56122;SDS011;42426;46.104;19.656;2023-01-24T14:28:13;27.40;;;18.80;;
56122;SDS011;42426;46.104;19.656;2023-01-24T14:30:44;27.55;;;17.67;;
56122;SDS011;42426;46.104;19.656;2023-01-24T14:33:32;30.67;;;18.17;;
56122;SDS011;42426;46.104;19.656;2023-01-24T14:36:23;26.75;;;19.63;;
56122;SDS011;42426;46.104;19.656;2023-01-24T14:41:39;24.25;;;14.73;;
56122;SDS011;42426;46.104;19.656;2023-01-24T14:44:15;23.98;;;13.52;;
56122;SDS011;42426;46.104;19.656;2023-01-24T14:47:02;32.72;;;18.65;;
56122;SDS011;42426;46.104;19.656;2023-01-24T14:52:00;51.47;;;27.83;;
56122;SDS011;42426;46.104;19.656;2023-01-24T14:54:27;42.95;;;24.25;;
56122;SDS011;42426;46.104;19.656;2023-01-24T14:56:52;26.33;;;15.70;;
56122;SDS011;42426;46.104;19.656;2023-01-24T14:59:19;37.40;;;21.02;;
56122;SDS011;42426;46.104;19.656;2023-01-24T15:01:48;30.10;;;20.15;;
56122;SDS011;42426;46.104;19.656;2023-01-24T15:04:23;88.18;;;49.67;;
56122;SDS011;42426;46.104;19.656;2023-01-24T15:07:11;53.17;;;30.90;;
56122;SDS011;42426;46.104;19.656;2023-01-24T15:09:39;81.43;;;44.42;;
56122;SDS011;42426;46.104;19.656;2023-01-24T15:12:25;44.35;;;25.25;;
56122;SDS011;42426;46.104;19.656;2023-01-24T15:14:56;35.72;;;20.63;;
56122;SDS011;42426;46.104;19.656;2023-01-24T15:17:26;39.65;;;25.08;;
56122;SDS011;42426;46.104;19.656;2023-01-24T15:20:06;48.92;;;27.60;;
56122;SDS011;42426;46.104;19.656;2023-01-24T15:22:34;56.35;;;30.48;;
56122;SDS011;42426;46.104;19.656;2023-01-24T15:25:03;41.90;;;27.98;;
56122;SDS011;42426;46.104;19.656;2023-01-24T15:27:43;43.80;;;27.48;;
56122;SDS011;42426;46.104;19.656;2023-01-24T15:38:37;22.23;;;16.23;;
56122;SDS011;42426;46.104;19.656;2023-01-24T15:43:47;36.67;;;25.27;;
56122;SDS011;42426;46.104;19.656;2023-01-24T15:46:33;29.15;;;19.15;;
56122;SDS011;42426;46.104;19.656;2023-01-24T15:49:21;31.48;;;22.35;;
56122;SDS011;42426;46.104;19.656;2023-01-24T15:54:47;33.55;;;19.60;;
56122;SDS011;42426;46.104;19.656;2023-01-24T15:59:50;67.50;;;32.75;;
56122;SDS011;42426;46.104;19.656;2023-01-24T16:02:19;100.30;;;45.45;;
56122;SDS011;42426;46.104;19.656;2023-01-24T16:04:46;91.65;;;42.60;;
56122;SDS011;42426;46.104;19.656;2023-01-24T16:07:13;73.53;;;38.85;;
56122;SDS011;42426;46.104;19.656;2023-01-24T16:09:42;57.72;;;31.02;;
56122;SDS011;42426;46.104;19.656;2023-01-24T16:12:09;46.45;;;25.48;;
56122;SDS011;42426;46.104;19.656;2023-01-24T16:14:39;50.47;;;26.23;;
56122;SDS011;42426;46.104;19.656;2023-01-24T16:17:09;66.95;;;37.17;;
56122;SDS011;42426;46.104;19.656;2023-01-24T16:19:37;71.28;;;41.25;;
56122;SDS011;42426;46.104;19.656;2023-01-24T16:22:02;75.07;;;44.00;;
56122;SDS011;42426;46.104;19.656;2023-01-24T16:24:28;72.78;;;42.72;;
56122;SDS011;42426;46.104;19.656;2023-01-24T16:26:54;61.00;;;36.72;;
56122;SDS011;42426;46.104;19.656;2023-01-24T16:29:22;66.35;;;38.42;;
56122;SDS011;42426;46.104;19.656;2023-01-24T16:31:50;62.58;;;37.00;;
56122;SDS011;42426;46.104;19.656;2023-01-24T16:34:16;57.05;;;33.38;;
56122;SDS011;42426;46.104;19.656;2023-01-24T16:36:43;115.75;;;75.22;;
56122;SDS011;42426;46.104;19.656;2023-01-24T16:39:09;76.60;;;47.45;;
56122;SDS011;42426;46.104;19.656;2023-01-24T16:44:09;159.90;;;99.93;;
56122;SDS011;42426;46.104;19.656;2023-01-24T16:46:34;122.93;;;79.50;;
56122;SDS011;42426;46.104;19.656;2023-01-24T16:49:00;105.00;;;66.30;;
56122;SDS011;42426;46.104;19.656;2023-01-24T16:51:26;125.50;;;80.05;;
56122;SDS011;42426;46.104;19.656;2023-01-24T16:53:53;118.55;;;65.60;;
56122;SDS011;42426;46.104;19.656;2023-01-24T16:56:20;104.25;;;58.95;;
56122;SDS011;42426;46.104;19.656;2023-01-24T16:58:46;93.30;;;54.67;;
56122;SDS011;42426;46.104;19.656;2023-01-24T17:01:12;73.00;;;40.47;;
56122;SDS011;42426;46.104;19.656;2023-01-24T17:03:38;72.47;;;38.83;;
56122;SDS011;42426;46.104;19.656;2023-01-24T17:06:05;60.40;;;35.90;;
56122;SDS011;42426;46.104;19.656;2023-01-24T17:08:32;57.03;;;32.28;;
56122;SDS011;42426;46.104;19.656;2023-01-24T17:11:01;53.53;;;31.17;;
56122;SDS011;42426;46.104;19.656;2023-01-24T17:13:31;68.53;;;30.80;;